Time;durP1;ratioP1;P1;durP2;ratioP2;P2;SDS_P1;SDS_P2;PMS_P1;PMS_P2;Temp;Humidity;BMP_temperature;BMP_pressure;BME280_temperature;BME280_humidity;BME280_pressure;Samples;Min_cycle;Max_cycle;Signal;HPM_P1;HPM_P2
2023/09/26 00:00:41;;;;;;;5.03;4.53;;;19.80;57.10;;;;;;5036550;28;20189;-45
2023/09/26 00:03:07;;;;;;;4.77;4.37;;;20.10;57.50;;;;;;5034856;28;20221;-47
2023/09/26 00:05:33;;;;;;;5.03;4.50;;;20.30;55.90;;;;;;5041886;28;20188;-46
2023/09/26 00:08:03;;;;;;;5.00;4.60;;;20.30;54.80;;;;;;5050126;28;20768;-46
2023/09/26 00:10:29;;;;;;;4.77;4.37;;;20.30;54.30;;;;;;5045134;28;20562;-45
2023/09/26 00:12:54;;;;;;;5.20;4.70;;;20.20;54.70;;;;;;5035267;28;20448;-45
2023/09/26 00:15:20;;;;;;;4.63;4.23;;;20.10;54.40;;;;;;5029775;28;20897;-49
2023/09/26 00:17:46;;;;;;;7.10;4.80;;;20.10;54.60;;;;;;5039824;28;20189;-46
2023/09/26 00:20:26;;;;;;;6.80;5.10;;;20.00;57.30;;;;;;5044646;28;20558;-45
2023/09/26 00:22:52;;;;;;;4.90;4.50;;;20.10;55.20;;;;;;5037235;28;20193;-45
2023/09/26 00:25:17;;;;;;;5.53;5.03;;;20.10;54.40;;;;;;5046200;28;20491;-49
2023/09/26 00:27:43;;;;;;;5.73;5.20;;;20.00;54.10;;;;;;5039136;28;20200;-45
2023/09/26 00:30:09;;;;;;;5.47;5.07;;;20.00;54.10;;;;;;5038441;28;20605;-45
2023/09/26 00:32:36;;;;;;;6.10;5.30;;;19.90;54.30;;;;;;5043281;28;20439;-46
2023/09/26 00:35:02;;;;;;;5.87;5.10;;;19.80;54.50;;;;;;5043838;28;20201;-46
2023/09/26 00:37:28;;;;;;;7.10;5.00;;;19.60;54.70;;;;;;5039593;28;21052;-46
2023/09/26 00:39:53;;;;;;;4.77;4.37;;;19.50;55.10;;;;;;5033134;28;20796;-49
2023/09/26 00:42:19;;;;;;;6.23;5.20;;;19.50;55.50;;;;;;5037029;28;20197;-47
2023/09/26 00:44:44;;;;;;;4.60;4.30;;;19.40;55.90;;;;;;5035061;28;20247;-46
2023/09/26 00:47:10;;;;;;;5.70;5.27;;;19.40;55.90;;;;;;5040496;28;20238;-48
2023/09/26 00:49:36;;;;;;;5.23;4.80;;;19.40;56.00;;;;;;5038042;28;20217;-49
2023/09/26 00:52:04;;;;;;;5.07;4.67;;;19.30;56.20;;;;;;5046077;28;20255;-49
2023/09/26 00:54:30;;;;;;;6.23;5.03;;;19.20;56.40;;;;;;5046244;28;20514;-46
2023/09/26 00:56:57;;;;;;;5.80;4.93;;;19.20;56.40;;;;;;5040925;28;20482;-48
2023/09/26 00:59:23;;;;;;;5.17;4.67;;;19.10;56.40;;;;;;5044219;28;20436;-46
2023/09/26 01:01:50;;;;;;;5.10;4.70;;;19.10;57.10;;;;;;5050343;28;20517;-47
2023/09/26 01:04:18;;;;;;;6.07;5.50;;;19.20;56.40;;;;;;5038268;28;20508;-45
2023/09/26 01:06:44;;;;;;;5.17;4.77;;;19.10;56.90;;;;;;5044647;28;20438;-46
2023/09/26 01:09:12;;;;;;;6.00;4.67;;;19.10;56.70;;;;;;5040278;28;20518;-47
2023/09/26 01:11:37;;;;;;;5.00;4.60;;;19.20;56.70;;;;;;5052246;28;20435;-45
2023/09/26 01:14:03;;;;;;;5.90;4.97;;;19.20;57.40;;;;;;5031134;28;20444;-47
2023/09/26 01:16:29;;;;;;;5.63;5.13;;;19.20;56.50;;;;;;5042169;28;20225;-44
2023/09/26 01:18:54;;;;;;;5.37;4.87;;;19.20;56.30;;;;;;5039887;28;20205;-46
2023/09/26 01:21:20;;;;;;;6.80;5.23;;;19.20;56.40;;;;;;5039167;28;20186;-46
2023/09/26 01:23:53;;;;;;;5.90;5.20;;;19.20;56.30;;;;;;5032461;28;20212;-49
2023/09/26 01:26:19;;;;;;;5.30;4.90;;;19.10;56.20;;;;;;5032965;28;20630;-48
2023/09/26 01:28:45;;;;;;;7.03;4.37;;;19.10;56.30;;;;;;5037394;28;20526;-44
2023/09/26 01:31:10;;;;;;;5.00;4.60;;;19.10;58.30;;;;;;5042528;28;20554;-44
2023/09/26 01:33:36;;;;;;;5.20;4.70;;;19.20;56.70;;;;;;5043866;28;20192;-44
2023/09/26 01:36:02;;;;;;;5.07;4.63;;;19.10;56.20;;;;;;5034346;28;20628;-45
2023/09/26 01:38:27;;;;;;;4.90;4.47;;;19.10;56.20;;;;;;5037452;28;20196;-43
2023/09/26 01:40:53;;;;;;;5.80;5.30;;;19.00;56.30;;;;;;5029452;28;20263;-43
2023/09/26 01:43:18;;;;;;;5.07;4.57;;;18.90;56.30;;;;;;5032070;28;20189;-45
2023/09/26 01:45:44;;;;;;;4.90;4.40;;;18.90;56.30;;;;;;5028183;28;20244;-44
2023/09/26 01:48:11;;;;;;;4.97;4.57;;;18.80;56.00;;;;;;5032251;28;20221;-45
2023/09/26 01:50:38;;;;;;;5.23;4.83;;;18.80;56.10;;;;;;5032151;28;20234;-49
2023/09/26 01:53:04;;;;;;;4.90;4.10;;;18.70;56.20;;;;;;5031204;28;20495;-43
2023/09/26 01:55:30;;;;;;;4.80;4.40;;;18.60;56.10;;;;;;5036051;28;20906;-48
2023/09/26 01:57:56;;;;;;;4.47;4.10;;;18.50;56.10;;;;;;5034324;28;20448;-45
2023/09/26 02:00:22;;;;;;;5.70;4.70;;;18.50;56.10;;;;;;5035170;28;20201;-47
2023/09/26 02:02:50;;;;;;;5.50;5.10;;;18.40;56.10;;;;;;5040946;28;20428;-50
2023/09/26 02:05:17;;;;;;;5.53;5.10;;;18.30;56.60;;;;;;5031367;28;20201;-45
2023/09/26 02:07:46;;;;;;;5.50;5.00;;;18.20;57.10;;;;;;5036916;28;20487;-49
2023/09/26 02:10:12;;;;;;;4.30;4.00;;;18.10;57.00;;;;;;5028239;28;20476;-44
2023/09/26 02:12:42;;;;;;;5.07;4.00;;;18.00;56.40;;;;;;5036314;28;20438;-46
2023/09/26 02:15:08;;;;;;;4.03;3.63;;;18.00;55.80;;;;;;5039144;28;20475;-43
2023/09/26 02:17:37;;;;;;;4.40;4.00;;;17.90;55.70;;;;;;5030431;28;20491;-46
2023/09/26 02:20:17;;;;;;;5.93;4.50;;;17.90;56.10;;;;;;5042719;28;20525;-48
2023/09/26 02:22:45;;;;;;;5.10;4.70;;;17.90;56.40;;;;;;5034622;28;20450;-44
2023/09/26 02:25:12;;;;;;;6.03;4.60;;;17.80;56.60;;;;;;5037349;28;20447;-43
2023/09/26 02:27:41;;;;;;;5.20;4.80;;;17.80;56.80;;;;;;5033557;28;20447;-45
2023/09/26 02:30:09;;;;;;;5.53;5.03;;;17.80;57.00;;;;;;5036088;28;20538;-50
2023/09/26 02:32:35;;;;;;;7.30;4.80;;;17.70;57.20;;;;;;5041617;28;20491;-45
2023/09/26 02:35:02;;;;;;;5.40;4.90;;;17.60;57.90;;;;;;5032686;28;20463;-45
2023/09/26 02:37:28;;;;;;;5.63;5.17;;;17.50;58.40;;;;;;5049812;28;21054;-44
2023/09/26 02:39:54;;;;;;;5.17;4.73;;;17.50;58.40;;;;;;5032779;28;20522;-48
2023/09/26 02:42:19;;;;;;;4.97;4.57;;;17.60;58.40;;;;;;5031770;28;20448;-44
2023/09/26 02:44:45;;;;;;;6.20;5.70;;;17.60;58.20;;;;;;5039641;28;20283;-44
2023/09/26 02:47:10;;;;;;;5.83;5.33;;;17.60;58.00;;;;;;5049632;28;20254;-43
2023/09/26 02:49:36;;;;;;;5.70;5.10;;;17.70;57.90;;;;;;5037227;28;20253;-44
2023/09/26 02:52:02;;;;;;;5.87;5.27;;;17.60;57.70;;;;;;5040357;28;20193;-48
2023/09/26 02:54:28;;;;;;;6.60;5.90;;;17.60;57.70;;;;;;5039384;28;20395;-45
2023/09/26 02:56:53;;;;;;;5.80;4.97;;;17.60;57.70;;;;;;5039049;28;20755;-45
2023/09/26 02:59:19;;;;;;;5.70;5.03;;;17.60;57.80;;;;;;5037687;28;20193;-44
2023/09/26 03:01:44;;;;;;;5.23;4.83;;;17.60;58.20;;;;;;5035580;28;20202;-47
2023/09/26 03:04:10;;;;;;;5.80;5.30;;;17.50;58.30;;;;;;5033784;28;20206;-49
2023/09/26 03:06:35;;;;;;;5.83;5.20;;;17.50;58.30;;;;;;5040431;28;20193;-46
2023/09/26 03:09:01;;;;;;;5.23;4.73;;;17.30;58.60;;;;;;5031144;28;20193;-50
2023/09/26 03:11:27;;;;;;;5.07;4.57;;;17.30;58.80;;;;;;5033770;28;20192;-45
2023/09/26 03:13:52;;;;;;;5.33;4.83;;;17.30;58.70;;;;;;5043910;28;20204;-44
2023/09/26 03:16:18;;;;;;;5.83;5.20;;;17.30;58.30;;;;;;5032749;28;20221;-46
2023/09/26 03:18:44;;;;;;;5.63;5.13;;;17.30;58.40;;;;;;5037828;28;20243;-44
2023/09/26 03:21:11;;;;;;;5.93;5.33;;;17.20;58.30;;;;;;5044428;28;20479;-46
2023/09/26 03:23:37;;;;;;;5.40;5.00;;;17.10;58.60;;;;;;5040660;28;20448;-45
2023/09/26 03:26:10;;;;;;;5.87;5.27;;;17.10;58.90;;;;;;5034798;28;20459;-44
2023/09/26 03:28:36;;;;;;;5.70;5.20;;;16.80;59.40;;;;;;5032335;28;20216;-44
2023/09/26 03:31:05;;;;;;;6.20;5.70;;;16.80;59.90;;;;;;5037442;28;20464;-45
2023/09/26 03:33:32;;;;;;;6.33;5.67;;;16.80;59.80;;;;;;5035512;28;20542;-50
2023/09/26 03:35:58;;;;;;;6.13;5.50;;;16.80;59.90;;;;;;5040037;28;20506;-45
2023/09/26 03:38:23;;;;;;;7.43;6.73;;;16.90;60.00;;;;;;5039528;28;20985;-49
2023/09/26 03:41:15;;;;;;;6.23;5.63;;;16.90;60.00;;;;;;5041917;28;20238;-51
2023/09/26 03:43:41;;;;;;;5.70;5.20;;;16.70;61.20;;;;;;5034034;28;20228;-47
2023/09/26 03:46:07;;;;;;;6.23;5.63;;;16.80;61.00;;;;;;5031154;28;20511;-47
2023/09/26 03:48:34;;;;;;;7.37;6.67;;;16.70;61.40;;;;;;5036531;28;20239;-50
2023/09/26 03:51:11;;;;;;;7.17;6.13;;;16.50;62.30;;;;;;5035838;28;20849;-46
2023/09/26 03:53:37;;;;;;;5.80;5.30;;;16.30;62.30;;;;;;5026938;28;20528;-46
2023/09/26 03:56:03;;;;;;;6.70;6.10;;;15.90;64.20;;;;;;5037971;28;20474;-48
2023/09/26 03:58:29;;;;;;;8.07;6.70;;;15.60;65.50;;;;;;5048507;28;20484;-50
2023/09/26 04:00:54;;;;;;;7.70;7.00;;;15.70;65.80;;;;;;5044102;28;20436;-48
2023/09/26 04:03:20;;;;;;;7.17;6.47;;;15.70;65.30;;;;;;5038752;28;20193;-44
2023/09/26 04:05:48;;;;;;;7.90;5.97;;;15.70;65.70;;;;;;5054073;28;20702;-44
2023/09/26 04:08:17;;;;;;;7.83;6.00;;;15.50;66.50;;;;;;5054066;28;20794;-46
2023/09/26 04:10:42;;;;;;;7.87;6.90;;;15.40;66.60;;;;;;5041873;28;20446;-47
2023/09/26 04:13:08;;;;;;;6.40;5.80;;;15.50;67.00;;;;;;5034367;28;20931;-46
2023/09/26 04:15:37;;;;;;;6.40;5.90;;;15.60;66.70;;;;;;5033596;28;20210;-44
2023/09/26 04:18:03;;;;;;;6.87;6.27;;;15.60;67.00;;;;;;5038379;28;20209;-47
2023/09/26 04:20:29;;;;;;;7.30;6.70;;;15.70;66.30;;;;;;5044042;28;20976;-48
2023/09/26 04:22:55;;;;;;;7.53;6.80;;;15.80;66.20;;;;;;5032534;28;20476;-44
2023/09/26 04:25:20;;;;;;;6.70;6.20;;;15.60;66.40;;;;;;5035381;28;20186;-45
2023/09/26 04:27:46;;;;;;;7.93;7.23;;;15.30;68.20;;;;;;5031211;28;20193;-45
2023/09/26 04:30:12;;;;;;;7.50;6.80;;;15.30;68.70;;;;;;5042466;28;20223;-50
2023/09/26 04:32:37;;;;;;;8.10;7.40;;;15.50;68.50;;;;;;5036330;28;20194;-50
2023/09/26 04:35:03;;;;;;;8.00;7.20;;;15.60;68.00;;;;;;5031715;28;20324;-44
2023/09/26 04:37:29;;;;;;;7.43;6.70;;;15.60;68.00;;;;;;5035626;28;20232;-49
2023/09/26 04:39:55;;;;;;;7.90;7.20;;;15.60;67.90;;;;;;5031624;28;20472;-48
2023/09/26 04:42:20;;;;;;;6.87;6.27;;;15.60;67.30;;;;;;5042774;28;20235;-51
2023/09/26 04:44:46;;;;;;;7.50;6.80;;;15.60;67.40;;;;;;5021290;28;20319;-48
2023/09/26 04:47:11;;;;;;;7.23;6.63;;;15.60;67.90;;;;;;5035062;28;20645;-45
2023/09/26 04:49:37;;;;;;;7.60;6.90;;;15.50;67.60;;;;;;5035652;28;20200;-47
2023/09/26 04:52:03;;;;;;;7.57;6.77;;;15.50;67.10;;;;;;5038467;28;20196;-48
2023/09/26 04:54:29;;;;;;;8.90;7.50;;;15.60;66.90;;;;;;5028583;28;20189;-49
2023/09/26 04:56:54;;;;;;;11.80;6.90;;;15.40;67.20;;;;;;5037294;28;20877;-46
2023/09/26 04:59:20;;;;;;;7.20;6.50;;;15.30;68.10;;;;;;5036392;28;20708;-45
2023/09/26 05:01:46;;;;;;;6.87;6.30;;;15.40;67.80;;;;;;5040680;28;20196;-49
2023/09/26 05:04:12;;;;;;;8.17;7.33;;;15.50;67.30;;;;;;5047157;28;20215;-46
2023/09/26 05:06:37;;;;;;;8.17;7.37;;;15.50;66.60;;;;;;5046151;28;20189;-46
2023/09/26 05:09:07;;;;;;;7.27;6.67;;;15.60;66.10;;;;;;5033040;28;20450;-49
2023/09/26 05:11:33;;;;;;;8.07;6.50;;;15.70;65.90;;;;;;5037707;28;20714;-49
2023/09/26 05:13:59;;;;;;;7.07;6.47;;;15.60;66.00;;;;;;5043754;28;20521;-49
2023/09/26 05:16:25;;;;;;;6.60;6.10;;;15.50;67.10;;;;;;5031560;28;20253;-51
2023/09/26 05:18:51;;;;;;;7.97;6.73;;;15.50;66.40;;;;;;5042975;28;20435;-50
2023/09/26 05:21:17;;;;;;;19.63;5.37;;;15.40;66.40;;;;;;5035608;28;20476;-51
2023/09/26 05:23:42;;;;;;;7.03;6.37;;;15.70;70.10;;;;;;5039339;28;20586;-49
2023/09/26 05:26:10;;;;;;;6.07;5.47;;;16.20;70.20;;;;;;5031521;28;20243;-50
2023/09/26 05:28:35;;;;;;;5.67;5.17;;;16.70;68.70;;;;;;5036609;28;20204;-49
2023/09/26 05:31:01;;;;;;;5.27;4.67;;;17.00;65.60;;;;;;5030354;28;20485;-49
2023/09/26 05:33:26;;;;;;;5.37;4.97;;;17.30;64.10;;;;;;5034888;28;20208;-50
2023/09/26 05:35:55;;;;;;;6.10;5.50;;;17.50;62.10;;;;;;5030476;28;20213;-49
2023/09/26 05:38:20;;;;;;;6.37;5.77;;;17.70;60.80;;;;;;5050700;28;20196;-51
2023/09/26 05:40:47;;;;;;;6.37;5.67;;;17.70;59.50;;;;;;5036376;28;20455;-47
2023/09/26 05:43:13;;;;;;;6.70;6.10;;;17.80;59.20;;;;;;5037471;28;20189;-50
2023/09/26 05:45:38;;;;;;;6.80;6.20;;;18.00;59.00;;;;;;5026688;28;20510;-50
2023/09/26 05:48:04;;;;;;;5.90;5.40;;;18.10;58.80;;;;;;5042597;28;20232;-50
2023/09/26 05:50:30;;;;;;;5.70;5.30;;;18.30;58.50;;;;;;5026616;28;20288;-50
2023/09/26 05:52:56;;;;;;;9.17;5.90;;;18.40;58.00;;;;;;5043244;28;20834;-45
2023/09/26 05:55:22;;;;;;;5.90;5.40;;;18.40;57.40;;;;;;5038054;28;20455;-49
2023/09/26 05:57:48;;;;;;;7.10;6.40;;;18.30;57.80;;;;;;5031057;28;20217;-48
2023/09/26 06:00:15;;;;;;;6.70;6.10;;;18.20;58.00;;;;;;5029420;28;20220;-46
2023/09/26 06:02:41;;;;;;;7.10;6.50;;;18.30;58.00;;;;;;5029362;28;20211;-46
2023/09/26 06:05:07;;;;;;;5.30;4.90;;;18.40;57.90;;;;;;5033241;28;20523;-47
2023/09/26 06:07:33;;;;;;;6.57;6.07;;;18.50;57.60;;;;;;5027956;28;20532;-45
2023/09/26 06:09:58;;;;;;;6.30;5.70;;;18.50;57.10;;;;;;5043081;28;20427;-44
2023/09/26 06:12:24;;;;;;;6.00;5.50;;;18.40;57.60;;;;;;5036642;28;20200;-47
2023/09/26 06:14:51;;;;;;;7.10;6.07;;;18.20;58.00;;;;;;5044959;28;20211;-45
2023/09/26 06:17:17;;;;;;;6.33;5.87;;;18.40;57.80;;;;;;5039180;28;20986;-44
2023/09/26 06:19:47;;;;;;;6.47;5.97;;;18.50;57.40;;;;;;5035780;28;20489;-45
2023/09/26 06:22:13;;;;;;;6.90;6.37;;;18.60;57.20;;;;;;5031985;28;20432;-46
2023/09/26 06:24:39;;;;;;;7.90;5.80;;;18.80;57.30;;;;;;5039170;28;20521;-45
2023/09/26 06:27:04;;;;;;;7.33;6.40;;;18.90;56.90;;;;;;5029303;28;21002;-45
2023/09/26 06:29:30;;;;;;;7.20;6.03;;;19.20;56.50;;;;;;5028077;28;20193;-47
2023/09/26 06:31:55;;;;;;;7.50;6.80;;;19.40;56.00;;;;;;5022217;28;20863;-46
2023/09/26 06:34:21;;;;;;;7.83;6.00;;;19.50;55.70;;;;;;5021399;28;20197;-45
2023/09/26 06:36:49;;;;;;;6.33;5.73;;;19.70;55.40;;;;;;5029150;28;20282;-46
2023/09/26 06:39:15;;;;;;;5.70;5.20;;;19.80;55.60;;;;;;5021239;28;20212;-46
2023/09/26 06:41:41;;;;;;;7.00;6.50;;;19.90;55.20;;;;;;5020833;28;20440;-45
2023/09/26 06:44:09;;;;;;;7.53;6.73;;;19.90;55.30;;;;;;5033497;28;20820;-47
2023/09/26 06:46:35;;;;;;;6.10;5.50;;;19.60;55.50;;;;;;5026572;28;20928;-47
2023/09/26 06:49:01;;;;;;;10.30;6.80;;;19.60;56.40;;;;;;5030773;28;20442;-47
2023/09/26 06:51:26;;;;;;;7.60;6.90;;;19.70;56.00;;;;;;5041876;28;20432;-51
2023/09/26 06:53:52;;;;;;;6.90;6.27;;;19.80;56.20;;;;;;5030508;28;20196;-45
2023/09/26 06:56:18;;;;;;;7.17;6.00;;;19.80;56.10;;;;;;5034979;28;20240;-48
2023/09/26 06:58:43;;;;;;;6.90;6.00;;;20.10;55.80;;;;;;5014712;28;20186;-45
2023/09/26 07:01:17;;;;;;;6.93;6.37;;;20.10;55.20;;;;;;5019396;28;22134;-50
2023/09/26 07:03:43;;;;;;;6.63;6.10;;;20.20;55.10;;;;;;5020925;28;20190;-45
2023/09/26 07:06:13;;;;;;;6.60;6.00;;;20.40;55.00;;;;;;5024413;28;20525;-46
2023/09/26 07:08:41;;;;;;;8.10;6.37;;;20.50;54.70;;;;;;5024857;28;20280;-49
2023/09/26 07:11:08;;;;;;;8.90;6.83;;;20.80;54.70;;;;;;5024277;28;20431;-46
2023/09/26 07:13:36;;;;;;;7.00;6.40;;;21.00;54.50;;;;;;5017794;28;20444;-51
2023/09/26 07:16:06;;;;;;;7.53;6.83;;;21.30;54.20;;;;;;5025717;28;20557;-45
2023/09/26 07:18:33;;;;;;;7.50;5.17;;;21.50;53.60;;;;;;5026291;28;20451;-48
2023/09/26 07:21:00;;;;;;;6.97;6.27;;;21.70;53.20;;;;;;5021468;28;20443;-45
2023/09/26 07:23:26;;;;;;;9.17;7.30;;;21.50;53.40;;;;;;5027312;28;20867;-47
2023/09/26 07:25:52;;;;;;;7.33;6.10;;;21.40;53.70;;;;;;5031211;28;20819;-46
2023/09/26 07:28:17;;;;;;;7.50;6.90;;;21.00;54.80;;;;;;5032993;28;20439;-51
2023/09/26 07:30:47;;;;;;;6.80;6.20;;;21.20;54.50;;;;;;5033532;28;20208;-46
2023/09/26 07:33:13;;;;;;;8.20;7.40;;;21.20;54.50;;;;;;5044124;28;20209;-46
2023/09/26 07:35:39;;;;;;;8.03;6.80;;;21.50;54.40;;;;;;5036178;28;20440;-47
2023/09/26 07:38:04;;;;;;;7.03;6.43;;;21.90;54.00;;;;;;5035863;28;20212;-45
2023/09/26 07:40:30;;;;;;;7.40;6.70;;;22.20;53.40;;;;;;5036613;28;20204;-45
2023/09/26 07:42:56;;;;;;;6.50;5.90;;;22.40;52.90;;;;;;5029727;28;20198;-47
2023/09/26 07:45:21;;;;;;;7.70;6.93;;;22.60;52.50;;;;;;5033022;28;20324;-46
2023/09/26 07:47:47;;;;;;;8.00;7.30;;;22.80;51.80;;;;;;5021154;28;21094;-51
2023/09/26 07:50:12;;;;;;;8.03;7.23;;;22.90;51.80;;;;;;5032030;28;20199;-45
2023/09/26 07:52:38;;;;;;;10.23;6.43;;;22.90;51.60;;;;;;5030445;28;20222;-48
2023/09/26 07:55:05;;;;;;;7.73;7.00;;;23.00;51.20;;;;;;5026810;28;21442;-46
2023/09/26 07:57:31;;;;;;;7.50;6.83;;;23.10;51.60;;;;;;5022984;28;20339;-50
2023/09/26 07:59:56;;;;;;;7.27;6.57;;;23.10;51.40;;;;;;5029740;28;20946;-48
2023/09/26 08:02:22;;;;;;;15.00;6.47;;;23.20;51.50;;;;;;5029560;28;20701;-48
2023/09/26 08:04:48;;;;;;;6.53;6.03;;;23.30;51.40;;;;;;5028678;28;20193;-48
2023/09/26 08:07:13;;;;;;;11.00;7.40;;;23.30;51.20;;;;;;5032795;28;20222;-51
2023/09/26 08:09:39;;;;;;;8.03;7.43;;;23.30;51.00;;;;;;5026089;28;20197;-50
2023/09/26 08:12:05;;;;;;;7.93;6.67;;;23.30;50.90;;;;;;5033427;28;20676;-46
2023/09/26 08:14:30;;;;;;;7.93;7.33;;;23.40;50.70;;;;;;5023625;28;20205;-46
2023/09/26 08:16:56;;;;;;;7.53;6.87;;;23.50;51.00;;;;;;5037933;28;20220;-46
2023/09/26 08:19:21;;;;;;;8.50;7.23;;;23.60;51.10;;;;;;5031296;28;20625;-49
2023/09/26 08:21:47;;;;;;;6.70;5.90;;;23.60;50.80;;;;;;5032521;28;20219;-47
2023/09/26 08:24:13;;;;;;;7.77;7.10;;;23.50;50.10;;;;;;5025471;28;20624;-47
2023/09/26 08:26:38;;;;;;;7.80;7.10;;;23.30;50.40;;;;;;5028603;28;20198;-46
2023/09/26 08:29:05;;;;;;;7.87;7.07;;;23.20;50.90;;;;;;5030047;28;20194;-47
2023/09/26 08:31:31;;;;;;;7.80;7.10;;;23.40;51.20;;;;;;5026078;28;21446;-46
2023/09/26 08:33:56;;;;;;;7.50;6.90;;;23.60;51.60;;;;;;5031607;28;20444;-46
2023/09/26 08:36:22;;;;;;;6.67;6.00;;;23.50;50.50;;;;;;5028347;28;20719;-46
2023/09/26 08:38:50;;;;;;;6.60;6.00;;;23.60;50.50;;;;;;5033594;28;20193;-46
2023/09/26 08:41:17;;;;;;;7.30;6.70;;;23.70;50.60;;;;;;5034663;28;20190;-49
2023/09/26 08:43:43;;;;;;;7.10;6.40;;;23.90;50.10;;;;;;5026334;28;20542;-46
2023/09/26 08:46:09;;;;;;;6.70;6.10;;;24.00;50.10;;;;;;5033654;28;20931;-48
2023/09/26 08:48:35;;;;;;;8.50;7.77;;;23.80;50.60;;;;;;5022693;28;20280;-46
2023/09/26 08:51:01;;;;;;;7.70;7.10;;;23.80;50.60;;;;;;5028434;28;20961;-47
2023/09/26 08:53:27;;;;;;;6.87;6.27;;;23.90;50.50;;;;;;5028578;28;20428;-49
2023/09/26 08:55:54;;;;;;;7.10;6.40;;;24.00;50.40;;;;;;5030691;28;20447;-51
2023/09/26 08:58:20;;;;;;;6.40;5.87;;;24.20;50.30;;;;;;5029529;28;20935;-46
2023/09/26 09:00:46;;;;;;;7.57;6.87;;;24.30;50.80;;;;;;5025331;28;20448;-49
2023/09/26 09:03:13;;;;;;;7.57;6.87;;;24.30;50.20;;;;;;5033624;28;20459;-45
2023/09/26 09:05:40;;;;;;;6.30;5.80;;;24.40;50.40;;;;;;5032186;28;20193;-51
2023/09/26 09:08:07;;;;;;;6.40;5.80;;;24.60;49.50;;;;;;5026253;28;20812;-45
2023/09/26 09:10:49;;;;;;;6.73;6.13;;;24.80;49.80;;;;;;5027109;28;20444;-46
2023/09/26 09:13:45;;;;;;;6.70;6.10;;;25.00;49.40;;;;;;5025234;28;20483;-46
2023/09/26 09:16:15;;;;;;;7.30;6.60;;;25.10;48.50;;;;;;5028065;28;20496;-46
2023/09/26 09:18:43;;;;;;;6.20;5.50;;;25.20;48.20;;;;;;5023937;28;20447;-46
2023/09/26 09:21:31;;;;;;;7.77;6.43;;;25.30;48.60;;;;;;5028913;28;20448;-47
2023/09/26 09:23:59;;;;;;;6.03;5.43;;;25.30;48.40;;;;;;5023388;28;20468;-46
2023/09/26 09:26:32;;;;;;;5.87;5.37;;;25.40;48.30;;;;;;5025583;28;20463;-50
2023/09/26 09:29:14;;;;;;;6.70;4.90;;;25.60;47.90;;;;;;5037724;28;20440;-45
2023/09/26 09:31:40;;;;;;;6.13;5.53;;;25.70;48.50;;;;;;5030232;28;20446;-45
2023/09/26 09:34:05;;;;;;;10.60;5.00;;;25.90;48.10;;;;;;5039449;28;21046;-45
2023/09/26 09:36:31;;;;;;;5.50;5.00;;;26.10;48.00;;;;;;5049675;28;20258;-44
2023/09/26 09:38:56;;;;;;;22.33;8.20;;;26.40;47.30;;;;;;5051278;28;20196;-47
2023/09/26 09:41:22;;;;;;;18.20;5.77;;;26.50;46.60;;;;;;5031464;28;20267;-45
2023/09/26 09:43:48;;;;;;;5.10;4.60;;;26.50;46.70;;;;;;5041910;28;20236;-44
2023/09/26 09:46:16;;;;;;;5.50;5.00;;;26.70;46.40;;;;;;5043184;28;20208;-46
2023/09/26 09:48:46;;;;;;;5.90;5.30;;;26.80;46.40;;;;;;5051061;28;20201;-49
2023/09/26 09:51:14;;;;;;;5.20;4.80;;;26.60;46.00;;;;;;5047370;28;20430;-45
2023/09/26 09:53:48;;;;;;;15.97;5.33;;;26.50;45.60;;;;;;5015041;28;20457;-47
2023/09/26 09:56:19;;;;;;;4.87;4.37;;;26.40;46.20;;;;;;5032047;28;20490;-48
2023/09/26 09:58:49;;;;;;;3.80;3.47;;;26.50;45.80;;;;;;5032844;28;20475;-45
2023/09/26 10:01:16;;;;;;;6.33;4.40;;;26.70;46.00;;;;;;5026098;28;20432;-44
2023/09/26 10:03:42;;;;;;;4.10;3.80;;;26.90;45.00;;;;;;5016500;28;20466;-48
2023/09/26 10:06:08;;;;;;;8.70;4.50;;;27.30;45.70;;;;;;5022100;28;20924;-44
2023/09/26 10:08:35;;;;;;;4.97;4.57;;;27.50;44.10;;;;;;5035789;28;20615;-49
2023/09/26 10:11:03;;;;;;;7.63;4.30;;;27.50;44.30;;;;;;5039591;28;20431;-49
2023/09/26 10:13:29;;;;;;;4.47;4.10;;;27.60;43.60;;;;;;5030467;28;20439;-44
2023/09/26 10:16:11;;;;;;;4.40;3.87;;;27.80;43.40;;;;;;5042103;28;20431;-47
2023/09/26 10:18:41;;;;;;;4.77;4.47;;;27.90;43.20;;;;;;5039667;28;20438;-47
2023/09/26 10:21:30;;;;;;;6.93;4.40;;;28.00;42.60;;;;;;5036652;28;20886;-46
2023/09/26 10:24:08;;;;;;;5.03;4.10;;;28.20;42.60;;;;;;5034790;28;20861;-51
2023/09/26 10:26:36;;;;;;;4.77;3.77;;;28.30;42.20;;;;;;5039436;28;20833;-49
2023/09/26 10:29:15;;;;;;;5.27;4.77;;;28.40;42.30;;;;;;5035812;28;20420;-51
2023/09/26 10:31:49;;;;;;;4.00;3.60;;;28.60;42.00;;;;;;5031350;28;20964;-46
2023/09/26 10:34:15;;;;;;;5.57;3.20;;;28.70;42.00;;;;;;5038080;28;20473;-46
2023/09/26 10:36:43;;;;;;;4.07;3.70;;;28.90;41.90;;;;;;5043497;28;20969;-46
2023/09/26 10:39:09;;;;;;;3.60;3.30;;;29.00;41.50;;;;;;5036043;28;20579;-45
2023/09/26 10:41:36;;;;;;;3.93;2.93;;;29.20;41.30;;;;;;5037739;28;20439;-44
2023/09/26 10:44:04;;;;;;;4.30;3.90;;;29.10;40.90;;;;;;5048694;28;20471;-47
2023/09/26 10:46:30;;;;;;;4.10;3.70;;;28.80;41.00;;;;;;5039797;28;20427;-47
2023/09/26 10:49:00;;;;;;;3.07;2.77;;;29.00;41.40;;;;;;5039947;28;20530;-49
2023/09/26 10:51:25;;;;;;;3.60;3.40;;;29.30;41.70;;;;;;5042899;28;20478;-45
2023/09/26 10:53:51;;;;;;;4.03;3.17;;;29.40;40.80;;;;;;5049776;28;20422;-47
2023/09/26 10:56:17;;;;;;;4.17;3.87;;;29.70;40.00;;;;;;5038648;28;20225;-46
2023/09/26 10:58:44;;;;;;;4.27;3.77;;;29.60;40.10;;;;;;5038100;28;20217;-46
2023/09/26 11:01:11;;;;;;;4.93;2.97;;;29.70;40.30;;;;;;5041285;28;20287;-45
2023/09/26 11:03:37;;;;;;;3.77;3.47;;;29.90;39.90;;;;;;5036122;28;20436;-45
2023/09/26 11:06:04;;;;;;;3.07;2.77;;;29.90;39.70;;;;;;5044348;28;20424;-44
2023/09/26 11:08:30;;;;;;;3.33;3.03;;;30.10;39.60;;;;;;5043302;28;20504;-47
2023/09/26 11:10:57;;;;;;;3.00;2.80;;;30.30;39.80;;;;;;5048347;28;20768;-47
2023/09/26 11:13:23;;;;;;;4.57;3.10;;;30.50;39.00;;;;;;5039596;28;20444;-44
2023/09/26 11:15:53;;;;;;;3.60;3.30;;;30.60;38.40;;;;;;5036296;28;20447;-44
2023/09/26 11:18:18;;;;;;;3.23;2.93;;;29.70;38.50;;;;;;5039687;28;20452;-47
2023/09/26 11:20:44;;;;;;;4.00;2.83;;;29.70;39.60;;;;;;5033319;28;20561;-49
2023/09/26 11:23:09;;;;;;;6.33;3.73;;;29.60;39.90;;;;;;5032770;28;20572;-49
2023/09/26 11:25:36;;;;;;;4.23;3.50;;;29.90;39.30;;;;;;5028950;28;20201;-49
2023/09/26 11:28:02;;;;;;;3.00;2.70;;;30.10;39.00;;;;;;5032402;28;20189;-49
2023/09/26 11:30:28;;;;;;;5.70;2.97;;;30.30;39.20;;;;;;5048086;28;20574;-45
2023/09/26 11:32:54;;;;;;;3.47;2.33;;;30.40;39.70;;;;;;5051164;28;20203;-46
2023/09/26 11:35:22;;;;;;;3.37;3.07;;;30.70;38.50;;;;;;5044946;28;20455;-46
2023/09/26 11:37:49;;;;;;;3.73;3.10;;;30.60;37.40;;;;;;5044980;28;20478;-44
2023/09/26 11:40:24;;;;;;;2.70;2.50;;;30.90;37.80;;;;;;5044683;28;20474;-46
2023/09/26 11:42:51;;;;;;;4.53;3.10;;;31.20;37.90;;;;;;5036848;28;20438;-46
2023/09/26 11:45:26;;;;;;;3.30;2.77;;;31.40;37.10;;;;;;5033221;28;20479;-45
2023/09/26 11:47:56;;;;;;;4.40;3.30;;;31.40;36.60;;;;;;5031619;28;20460;-47
2023/09/26 11:50:23;;;;;;;3.30;2.47;;;31.20;36.50;;;;;;5036677;28;20470;-48
2023/09/26 11:52:50;;;;;;;5.00;3.00;;;31.20;37.10;;;;;;5032447;28;20436;-47
2023/09/26 11:55:19;;;;;;;3.73;3.20;;;31.30;36.70;;;;;;5035395;28;20943;-47
2023/09/26 11:57:45;;;;;;;2.87;2.67;;;31.50;36.60;;;;;;5034544;28;20498;-45
2023/09/26 12:00:15;;;;;;;3.00;2.50;;;31.50;36.30;;;;;;5042577;28;20462;-50
2023/09/26 12:02:50;;;;;;;13.17;3.93;;;31.60;35.60;;;;;;5042934;28;20522;-48
2023/09/26 12:05:20;;;;;;;7.57;2.97;;;31.70;35.30;;;;;;5033066;28;20534;-47
2023/09/26 12:07:49;;;;;;;3.03;2.43;;;31.90;35.60;;;;;;5034407;28;20447;-48
2023/09/26 12:10:16;;;;;;;3.73;2.90;;;32.00;35.00;;;;;;5029920;28;20470;-49
2023/09/26 12:12:41;;;;;;;3.30;3.00;;;32.00;34.80;;;;;;5046824;28;20432;-51
2023/09/26 12:15:24;;;;;;;3.77;3.37;;;32.10;34.50;;;;;;5041187;28;20973;-44
2023/09/26 12:17:52;;;;;;;4.37;2.93;;;32.00;34.80;;;;;;5031511;28;20735;-50
2023/09/26 12:20:24;;;;;;;3.33;3.10;;;32.10;35.00;;;;;;5030383;28;20455;-49
2023/09/26 12:22:57;;;;;;;3.00;2.80;;;32.30;34.70;;;;;;5031341;28;20436;-50
2023/09/26 12:25:23;;;;;;;2.87;2.67;;;32.40;34.00;;;;;;5031460;28;20447;-49
2023/09/26 12:27:53;;;;;;;2.60;2.40;;;32.50;33.90;;;;;;5036895;28;20495;-49
2023/09/26 12:30:20;;;;;;;2.80;2.57;;;32.60;33.40;;;;;;5033030;28;22478;-49
2023/09/26 12:32:46;;;;;;;3.83;2.50;;;32.60;33.70;;;;;;5033002;28;20859;-50
2023/09/26 12:35:11;;;;;;;3.70;2.40;;;32.50;33.80;;;;;;5039670;28;20420;-50
2023/09/26 12:37:37;;;;;;;2.60;2.40;;;32.50;34.80;;;;;;5032214;28;21001;-47
2023/09/26 12:40:12;;;;;;;3.13;2.87;;;32.50;33.60;;;;;;5032249;28;20190;-49
2023/09/26 12:42:38;;;;;;;3.90;2.37;;;32.10;33.40;;;;;;5033938;28;20205;-50
2023/09/26 12:45:04;;;;;;;2.23;2.13;;;31.90;34.10;;;;;;5029388;28;20971;-50